Douglas, Washington
Current Conditions -  °F | °C
As of 9:18 PM on Monday 26 Jan 2015 (Local Time) from KEPH Reporting Station
Moderate Fog Moderate Fog  
Wind Chill: 35°   Ceiling: 200
Heat Index: 35°   Visibility: 0.25mi
Dew Point: 35°   Wind: 3mph
Humidity: 100%   Direction: 50°NE
Pressure: 30.01"   Gusts: NA
Location:  47.6257°N, 119.744°W
Report Text: KEPH 270518Z AUTO 05003KT 1/4SM FG VV002 02/02 A3001 RMK AO2 T00170017
Loading
Personal Weather Stations






























Interactive Weather Map New forecast layout! Learn more

10-Day Weather Forecast

Advertisements
Track Severe Weather on mobile